Hansa Limburg — A8IH6 — position and weather

sailwx.info

Track history (hours):
 
Tides and Currents Weather Stations Pressure Air Temp Water Temp Dewpoint Dewpoint Depression Visibility Wind Speed Wind Dir Waves Ship Positions

Hansa Limburg

Last reported at 2016-Apr-28 13:21 UTC. Time now 2016-Apr-30 03:25 UTC.
Position N 05°14' W 003°59'.

Length 175.5 m; beam 27.4 m; draft 10.9 m.

Type: Ship (hazmat cat A). MMSI: 636090980.

Date/timePositionNaut miles runAvg speedWind from/ knotsBaromVisibWave heightAir tempDewpointWater temp
2016-Apr-28 13:21N 05°14' W 003°59'3 1.2
2016-Apr-28 11:12N 05°16' W 004°01'0 0.0
2016-Apr-28 10:33N 05°16' W 004°01'0 0.0
2016-Apr-28 09:28N 05°16' W 004°01'0 0.0
2016-Apr-28 08:32N 05°16' W 004°01'0 0.0
2016-Apr-28 07:32N 05°16' W 004°01'0 0.0
2016-Apr-28 06:33N 05°16' W 004°01'0 0.0
2016-Apr-28 05:33N 05°16' W 004°01'0 0.0
2016-Apr-28 04:32N 05°16' W 004°01'0 0.0
2016-Apr-28 03:33N 05°16' W 004°01'0 0.0
2016-Apr-28 02:33N 05°16' W 004°01'0 0.0
2016-Apr-28 01:31N 05°16' W 004°01'0 0.0
2016-Apr-28 00:32N 05°16' W 004°01'0 0.0
2016-Apr-27 23:32N 05°16' W 004°01'0 0.0
2016-Apr-27 22:31N 05°16' W 004°01'0 0.0
2016-Apr-27 21:33N 05°16' W 004°01'0 0.0
2016-Apr-27 20:33N 05°16' W 004°01'0 0.0
2016-Apr-27 19:33N 05°16' W 004°01'0 0.0
2016-Apr-27 18:29N 05°16' W 004°01'0 0.0
2016-Apr-27 17:30N 05°16' W 004°01'0 0.0
2016-Apr-27 16:33N 05°16' W 004°01'0 0.0
2016-Apr-27 15:30N 05°16' W 004°01'0 0.0
2016-Apr-27 14:33N 05°16' W 004°01'0 0.0
2016-Apr-27 13:32N 05°16' W 004°01'0 0.0
2016-Apr-27 12:33N 05°16' W 004°01'0 0.0
2016-Apr-27 10:32N 05°16' W 004°01'3 2.7
2016-Apr-27 09:32N 05°14' W 003°59'1 0.9
2016-Apr-27 08:32N 05°13' W 003°59'5 1.5
2016-Apr-27 05:31N 05°13' W 004°03'0 0.0
2016-Apr-27 04:32N 05°13' W 004°03'0 0.0
2016-Apr-27 03:33N 05°13' W 004°03'0 0.0
2016-Apr-27 02:32N 05°13' W 004°03'0 0.0
2016-Apr-27 01:32N 05°13' W 004°03'0 0.0
2016-Apr-27 00:22N 05°13' W 004°03'0 0.0
2016-Apr-26 16:33N 05°13' W 004°03'0 0.1
2016-Apr-26 14:15N 05°13' W 004°03'0 0.0
2016-Apr-26 13:33N 05°13' W 004°03'0 0.0
2016-Apr-26 11:33N 05°13' W 004°03'0 0.0
2016-Apr-26 05:20N 05°13' W 004°03'0 0.1
2016-Apr-26 04:23N 05°13' W 004°03'0 0.0
2016-Apr-26 03:29N 05°13' W 004°03'0 0.0
2016-Apr-26 02:31N 05°13' W 004°03'0 0.0
2016-Apr-26 00:33N 05°13' W 004°03'0 0.0
2016-Apr-25 23:12N 05°13' W 004°03'0 0.0
2016-Apr-25 15:16N 05°13' W 004°03'0 0.0
2016-Apr-25 14:32N 05°13' W 004°03'0 0.0
2016-Apr-25 04:29N 05°13' W 004°03'3 3.0
2016-Apr-25 03:33N 05°10' W 004°02'  
Track history (hours):
 
Tides and Currents Weather Stations Pressure Air Temp Water Temp Dewpoint Dewpoint Depression Visibility Wind Speed Wind Dir Waves Ship Positions

Hansa Limburg

Last reported at 2016-Apr-28 13:21 UTC. Time now 2016-Apr-30 03:25 UTC.
Position N 05°14' W 003°59'.

Length 175.5 m; beam 27.4 m; draft 10.9 m.

Type: Ship (hazmat cat A). MMSI: 636090980.

Date/timePositionNaut miles runAvg speedWind from/ knotsBaromVisibWave heightAir tempDewpointWater temp
2016-Apr-28 13:21N 05°14' W 003°59'3 1.2
2016-Apr-28 11:12N 05°16' W 004°01'0 0.0
2016-Apr-28 10:33N 05°16' W 004°01'0 0.0
2016-Apr-28 09:28N 05°16' W 004°01'0 0.0
2016-Apr-28 08:32N 05°16' W 004°01'0 0.0
2016-Apr-28 07:32N 05°16' W 004°01'0 0.0
2016-Apr-28 06:33N 05°16' W 004°01'0 0.0
2016-Apr-28 05:33N 05°16' W 004°01'0 0.0
2016-Apr-28 04:32N 05°16' W 004°01'0 0.0
2016-Apr-28 03:33N 05°16' W 004°01'0 0.0
2016-Apr-28 02:33N 05°16' W 004°01'0 0.0
2016-Apr-28 01:31N 05°16' W 004°01'0 0.0
2016-Apr-28 00:32N 05°16' W 004°01'0 0.0
2016-Apr-27 23:32N 05°16' W 004°01'0 0.0
2016-Apr-27 22:31N 05°16' W 004°01'0 0.0
2016-Apr-27 21:33N 05°16' W 004°01'0 0.0
2016-Apr-27 20:33N 05°16' W 004°01'0 0.0
2016-Apr-27 19:33N 05°16' W 004°01'0 0.0
2016-Apr-27 18:29N 05°16' W 004°01'0 0.0
2016-Apr-27 17:30N 05°16' W 004°01'0 0.0
2016-Apr-27 16:33N 05°16' W 004°01'0 0.0
2016-Apr-27 15:30N 05°16' W 004°01'0 0.0
2016-Apr-27 14:33N 05°16' W 004°01'0 0.0
2016-Apr-27 13:32N 05°16' W 004°01'0 0.0
2016-Apr-27 12:33N 05°16' W 004°01'0 0.0
2016-Apr-27 10:32N 05°16' W 004°01'3 2.7
2016-Apr-27 09:32N 05°14' W 003°59'1 0.9
2016-Apr-27 08:32N 05°13' W 003°59'5 1.5
2016-Apr-27 05:31N 05°13' W 004°03'0 0.0
2016-Apr-27 04:32N 05°13' W 004°03'0 0.0
2016-Apr-27 03:33N 05°13' W 004°03'0 0.0
2016-Apr-27 02:32N 05°13' W 004°03'0 0.0
2016-Apr-27 01:32N 05°13' W 004°03'0 0.0
2016-Apr-27 00:22N 05°13' W 004°03'0 0.0
2016-Apr-26 16:33N 05°13' W 004°03'0 0.1
2016-Apr-26 14:15N 05°13' W 004°03'0 0.0
2016-Apr-26 13:33N 05°13' W 004°03'0 0.0
2016-Apr-26 11:33N 05°13' W 004°03'0 0.0
2016-Apr-26 05:20N 05°13' W 004°03'0 0.1
2016-Apr-26 04:23N 05°13' W 004°03'0 0.0
2016-Apr-26 03:29N 05°13' W 004°03'0 0.0
2016-Apr-26 02:31N 05°13' W 004°03'0 0.0
2016-Apr-26 00:33N 05°13' W 004°03'0 0.0
2016-Apr-25 23:12N 05°13' W 004°03'0 0.0
2016-Apr-25 15:16N 05°13' W 004°03'0 0.0
2016-Apr-25 14:32N 05°13' W 004°03'0 0.0
2016-Apr-25 04:29N 05°13' W 004°03'3 3.0
2016-Apr-25 03:33N 05°10' W 004°02'  

Dump ship's entire track history